createdAt,value
2017-11-21T00:00:59.210Z,99.90
2017-11-21T00:03:30.037Z,99.90
2017-11-21T00:05:59.554Z,99.90
2017-11-21T00:08:29.818Z,99.90
2017-11-21T00:10:59.657Z,99.90
2017-11-21T00:13:29.100Z,99.90
2017-11-21T00:15:58.540Z,99.90
2017-11-21T00:18:28.329Z,99.90
2017-11-21T00:20:58.593Z,99.90
2017-11-21T00:23:28.051Z,99.90
2017-11-21T00:25:57.506Z,99.90
2017-11-21T00:28:27.058Z,99.90
2017-11-21T00:30:57.305Z,99.90
2017-11-21T00:33:28.095Z,99.90
2017-11-21T00:35:57.800Z,99.90
2017-11-21T00:38:28.013Z,99.90
2017-11-21T00:40:58.993Z,99.90
2017-11-21T00:43:28.752Z,99.90
2017-11-21T00:45:58.625Z,99.90
2017-11-21T00:48:27.899Z,99.90
2017-11-21T00:51:00.661Z,99.90
2017-11-21T00:53:30.655Z,99.90
2017-11-21T00:56:01.232Z,99.90
2017-11-21T00:58:32.414Z,99.90
2017-11-21T01:01:02.567Z,99.90
2017-11-21T01:03:32.888Z,99.90
2017-11-21T01:06:02.944Z,99.90
2017-11-21T01:08:32.259Z,99.90
2017-11-21T01:11:02.494Z,99.90
2017-11-21T01:13:33.002Z,99.90
2017-11-21T01:16:03.039Z,99.90
2017-11-21T01:18:33.233Z,99.90
2017-11-21T01:21:02.934Z,99.90
2017-11-21T01:23:32.421Z,99.90
2017-11-21T01:26:02.347Z,99.90
2017-11-21T01:28:31.842Z,99.90
2017-11-21T01:31:00.979Z,99.90
2017-11-21T01:33:31.555Z,99.90
2017-11-21T01:36:01.005Z,99.90
2017-11-21T01:38:30.478Z,99.90
2017-11-21T01:41:02.051Z,99.90
2017-11-21T01:43:31.561Z,99.90
2017-11-21T01:46:01.128Z,99.90
2017-11-21T01:48:32.298Z,99.90
2017-11-21T01:51:06.126Z,99.90
2017-11-21T01:53:36.126Z,99.90
2017-11-21T01:56:06.288Z,99.90
2017-11-21T01:58:36.548Z,99.90
2017-11-21T02:01:06.916Z,99.90
2017-11-21T02:03:36.429Z,99.90
2017-11-21T02:06:07.406Z,99.90
2017-11-21T02:08:36.902Z,99.90
2017-11-21T02:11:07.145Z,99.90
2017-11-21T02:13:37.353Z,99.90
2017-11-21T02:16:07.440Z,99.90
2017-11-21T02:18:38.883Z,99.90
2017-11-21T02:21:09.189Z,99.90
2017-11-21T02:23:38.094Z,99.90
2017-11-21T02:26:08.969Z,99.90
2017-11-21T02:28:39.326Z,99.90
2017-11-21T02:31:08.888Z,99.90
2017-11-21T02:33:38.026Z,99.90
2017-11-21T02:36:10.824Z,99.90
2017-11-21T02:38:39.676Z,99.90
2017-11-21T02:41:09.791Z,99.90
2017-11-21T02:43:39.084Z,99.90
2017-11-21T02:46:08.018Z,99.90
2017-11-21T02:48:39.454Z,99.90
2017-11-21T02:51:10.301Z,99.90
2017-11-21T02:53:39.266Z,99.90
2017-11-21T02:56:08.461Z,99.90
2017-11-21T02:58:38.598Z,99.90
2017-11-21T03:01:07.405Z,99.90
2017-11-21T03:03:36.862Z,99.90
2017-11-21T03:06:06.672Z,99.90
2017-11-21T03:08:36.216Z,99.90
2017-11-21T03:11:06.948Z,99.90
2017-11-21T03:13:36.139Z,99.90
2017-11-21T03:16:06.189Z,99.90
2017-11-21T03:18:35.872Z,99.90
2017-11-21T03:21:19.026Z,99.90
2017-11-21T03:23:59.511Z,99.90
2017-11-21T03:26:28.820Z,99.90
2017-11-21T03:28:57.799Z,99.90
2017-11-21T03:31:26.726Z,99.90
2017-11-21T03:33:57.173Z,99.90
2017-11-21T03:36:26.136Z,99.90
2017-11-21T03:38:54.780Z,99.90
2017-11-21T03:41:24.693Z,99.90
2017-11-21T03:43:53.939Z,99.90
2017-11-21T03:46:23.432Z,99.90
2017-11-21T03:48:53.361Z,99.90
2017-11-21T03:51:23.893Z,99.90
2017-11-21T03:53:54.672Z,99.90
2017-11-21T03:56:25.772Z,99.90
2017-11-21T03:58:55.898Z,99.90
2017-11-21T04:01:25.417Z,99.90
2017-11-21T04:03:55.867Z,99.90
2017-11-21T04:06:27.005Z,99.90
2017-11-21T04:08:58.054Z,99.90
2017-11-21T04:11:28.353Z,99.90
2017-11-21T04:13:58.207Z,99.90
2017-11-21T04:16:28.658Z,99.90
2017-11-21T04:19:00.290Z,99.90
2017-11-21T04:21:30.272Z,99.90
2017-11-21T04:23:59.587Z,99.90
2017-11-21T04:26:29.725Z,99.90
2017-11-21T04:28:59.943Z,99.90
2017-11-21T04:31:31.292Z,99.90
2017-11-21T04:34:00.802Z,99.90
2017-11-21T04:36:30.628Z,99.90
2017-11-21T04:39:01.534Z,99.90
2017-11-21T04:41:31.666Z,99.90
2017-11-21T04:44:02.084Z,99.90
2017-11-21T04:46:31.933Z,99.90
2017-11-21T04:49:01.570Z,99.90
2017-11-21T04:51:31.002Z,99.90
2017-11-21T04:54:00.858Z,99.90
2017-11-21T04:56:30.371Z,99.90
2017-11-21T04:58:59.792Z,99.90
2017-11-21T05:01:29.801Z,99.90
2017-11-21T05:04:00.692Z,99.90
2017-11-21T05:06:31.538Z,99.90
2017-11-21T05:09:01.130Z,99.90
2017-11-21T05:11:30.578Z,99.90
2017-11-21T05:14:01.077Z,99.90
2017-11-21T05:16:31.247Z,99.90
2017-11-21T05:19:00.722Z,99.90
2017-11-21T05:21:31.811Z,99.90
2017-11-21T05:24:02.870Z,99.90
2017-11-21T05:26:32.311Z,99.90
2017-11-21T05:29:01.768Z,99.90
2017-11-21T05:31:31.356Z,99.90
2017-11-21T05:34:00.790Z,99.90
2017-11-21T05:36:30.105Z,99.90
2017-11-21T05:38:59.945Z,99.90
2017-11-21T05:41:29.473Z,99.90
2017-11-21T05:43:59.018Z,99.90
2017-11-21T05:46:29.042Z,99.90
2017-11-21T05:49:00.939Z,99.90
2017-11-21T05:51:30.464Z,99.90
2017-11-21T05:54:00.256Z,99.90
2017-11-21T05:56:30.468Z,99.90
2017-11-21T05:59:01.929Z,99.90
2017-11-21T06:01:32.977Z,99.90
2017-11-21T06:04:02.260Z,99.90
2017-11-21T06:06:31.762Z,99.90
2017-11-21T06:09:02.934Z,99.90
2017-11-21T06:11:32.709Z,99.90
2017-11-21T06:14:02.672Z,99.90
2017-11-21T06:16:32.157Z,99.90
2017-11-21T06:19:01.599Z,99.90
2017-11-21T06:21:32.393Z,99.90
2017-11-21T06:24:01.897Z,99.90
2017-11-21T06:26:35.297Z,99.90
2017-11-21T06:29:05.333Z,99.90
2017-11-21T06:31:34.794Z,99.90
2017-11-21T06:34:05.034Z,99.90
2017-11-21T06:36:35.330Z,99.90
2017-11-21T06:39:07.159Z,99.90
2017-11-21T06:41:37.498Z,99.90
2017-11-21T06:44:11.135Z,99.90
2017-11-21T06:46:49.552Z,99.90
2017-11-21T06:49:23.637Z,99.90
2017-11-21T06:51:54.409Z,99.90
2017-11-21T06:54:24.611Z,99.90
2017-11-21T06:56:54.601Z,99.90
2017-11-21T06:59:27.581Z,99.90
2017-11-21T07:01:58.435Z,99.90
2017-11-21T07:04:28.839Z,99.90
2017-11-21T07:06:59.870Z,99.90
2017-11-21T07:09:30.719Z,99.90
2017-11-21T07:12:00.683Z,99.90
2017-11-21T07:14:30.594Z,99.90
2017-11-21T07:17:01.099Z,99.90
2017-11-21T07:19:30.530Z,99.90
2017-11-21T07:21:59.985Z,99.90
2017-11-21T07:24:30.701Z,99.90
2017-11-21T07:27:00.357Z,99.90
2017-11-21T07:29:31.507Z,99.90
2017-11-21T07:32:09.451Z,99.90
2017-11-21T07:34:41.151Z,99.90
2017-11-21T07:37:12.005Z,99.90
2017-11-21T07:39:46.094Z,99.90
2017-11-21T07:42:18.433Z,99.90
2017-11-21T07:44:48.351Z,99.90
2017-11-21T07:47:17.822Z,99.90
2017-11-21T07:49:48.679Z,99.90
2017-11-21T07:52:19.845Z,99.90
2017-11-21T07:54:49.325Z,99.90
2017-11-21T07:57:21.573Z,99.90
2017-11-21T07:59:52.048Z,99.90
2017-11-21T08:02:22.381Z,99.90
2017-11-21T08:04:51.851Z,99.90
2017-11-21T08:07:22.454Z,99.90
2017-11-21T08:09:51.977Z,99.90
2017-11-21T08:12:21.293Z,99.90
2017-11-21T08:14:50.805Z,99.90
2017-11-21T08:17:20.247Z,99.90
2017-11-21T08:19:50.364Z,99.90
2017-11-21T08:22:21.403Z,99.90
2017-11-21T08:24:51.411Z,99.90
2017-11-21T08:27:21.270Z,99.90
2017-11-21T08:29:51.529Z,99.90
2017-11-21T08:32:21.739Z,99.90
2017-11-21T08:34:52.298Z,99.90
2017-11-21T08:37:21.920Z,99.90
2017-11-21T08:39:51.505Z,99.90
2017-11-21T08:42:21.360Z,99.90
2017-11-21T08:44:51.753Z,99.90
2017-11-21T08:47:22.173Z,99.90
2017-11-21T08:49:52.578Z,99.90
2017-11-21T08:52:22.031Z,99.90
2017-11-21T08:54:52.233Z,99.90
2017-11-21T08:57:22.483Z,99.90
2017-11-21T08:59:52.197Z,99.90
2017-11-21T09:02:21.768Z,99.90
2017-11-21T09:04:52.190Z,99.90
2017-11-21T09:07:22.553Z,99.90
2017-11-21T09:09:52.808Z,99.90
2017-11-21T09:12:23.741Z,99.90
2017-11-21T09:14:53.554Z,99.90
2017-11-21T09:17:23.050Z,99.90
2017-11-21T09:19:52.994Z,99.90
2017-11-21T09:22:23.095Z,99.90
2017-11-21T09:24:52.905Z,99.90
2017-11-21T09:27:23.965Z,99.90
2017-11-21T09:29:54.270Z,99.90
2017-11-21T09:32:24.544Z,99.90
2017-11-21T09:34:54.525Z,99.90
2017-11-21T09:37:25.058Z,99.90
2017-11-21T09:39:54.529Z,99.90
2017-11-21T09:42:24.323Z,99.90
2017-11-21T09:44:53.757Z,99.90
2017-11-21T09:47:23.509Z,99.90
2017-11-21T09:49:53.971Z,99.90
2017-11-21T09:52:24.437Z,99.90
2017-11-21T09:54:54.230Z,99.90
2017-11-21T09:57:23.908Z,99.90
2017-11-21T09:59:53.393Z,99.90
2017-11-21T10:02:24.355Z,99.90
2017-11-21T10:04:54.642Z,99.90
2017-11-21T10:07:24.108Z,99.90
2017-11-21T10:09:53.217Z,99.90
2017-11-21T10:12:23.137Z,99.90
2017-11-21T10:14:52.994Z,99.90
2017-11-21T10:17:40.953Z,99.90
2017-11-21T10:20:15.853Z,99.90
2017-11-21T10:22:48.658Z,99.90
2017-11-21T10:25:18.159Z,99.90
2017-11-21T10:27:47.264Z,99.90
2017-11-21T10:30:17.191Z,99.90
2017-11-21T10:32:54.173Z,99.90
2017-11-21T10:35:39.651Z,99.90
2017-11-21T10:38:18.585Z,99.90
2017-11-21T10:40:50.954Z,99.90
2017-11-21T10:43:20.588Z,99.90
2017-11-21T10:45:49.843Z,99.90
2017-11-21T10:48:20.445Z,99.90
2017-11-21T10:50:49.950Z,99.90
2017-11-21T10:53:20.988Z,99.90
2017-11-21T10:55:49.771Z,99.90
2017-11-21T10:58:18.558Z,99.90
2017-11-21T11:00:48.097Z,99.90
2017-11-21T11:03:18.200Z,99.90
2017-11-21T11:05:49.373Z,99.90
2017-11-21T11:08:22.183Z,99.90
2017-11-21T11:10:50.780Z,99.90
2017-11-21T11:13:20.132Z,99.90
2017-11-21T11:15:49.684Z,99.90
2017-11-21T11:18:18.258Z,99.90
2017-11-21T11:20:47.044Z,99.90
2017-11-21T11:23:16.208Z,99.90
2017-11-21T11:25:45.322Z,99.90
2017-11-21T11:28:15.669Z,99.90
2017-11-21T11:30:44.582Z,99.90
2017-11-21T11:33:13.422Z,99.90
2017-11-21T11:35:42.179Z,99.90
2017-11-21T11:38:11.019Z,99.90
2017-11-21T11:40:39.857Z,99.90
2017-11-21T11:43:10.011Z,99.90
2017-11-21T11:45:39.320Z,99.90
2017-11-21T11:48:08.459Z,99.90
2017-11-21T11:50:37.585Z,99.90
2017-11-21T11:53:07.032Z,99.90
2017-11-21T11:58:17.900Z,99.90
2017-11-21T12:00:47.041Z,99.90
2017-11-21T12:03:15.871Z,99.90
2017-11-21T12:05:45.073Z,99.90
2017-11-21T12:08:13.803Z,99.90
2017-11-21T12:10:42.364Z,99.90
2017-11-21T12:13:11.740Z,99.90
2017-11-21T12:15:40.301Z,99.90
2017-11-21T12:18:09.645Z,99.90
2017-11-21T12:20:38.575Z,99.90
2017-11-21T12:23:07.676Z,99.90
2017-11-21T12:25:36.545Z,99.90
2017-11-21T12:28:06.566Z,99.90
2017-11-21T12:30:36.057Z,99.90
2017-11-21T12:33:04.681Z,99.90
2017-11-21T12:35:33.611Z,99.90
2017-11-21T12:38:02.221Z,99.90
2017-11-21T12:40:30.987Z,99.90
2017-11-21T12:43:00.573Z,99.90
2017-11-21T12:45:29.154Z,99.90
2017-11-21T12:47:57.734Z,99.90
2017-11-21T12:50:26.468Z,99.90
2017-11-21T12:52:55.830Z,99.90
2017-11-21T12:55:24.440Z,99.90
2017-11-21T12:57:53.322Z,99.90
2017-11-21T13:00:21.912Z,99.90
2017-11-21T13:02:51.449Z,99.90
2017-11-21T13:05:20.193Z,99.90
2017-11-21T13:07:48.794Z,99.90
2017-11-21T13:13:08.156Z,99.90
2017-11-21T13:16:01.598Z,99.90
2017-11-21T13:18:35.785Z,99.90
2017-11-21T13:21:04.449Z,99.90
2017-11-21T13:23:33.030Z,99.90
2017-11-21T13:26:01.736Z,99.90
2017-11-21T13:28:30.303Z,99.90
2017-11-21T13:30:58.881Z,99.90
2017-11-21T13:33:28.542Z,99.90
2017-11-21T13:35:57.151Z,99.90
2017-11-21T13:38:32.450Z,99.90
2017-11-21T13:41:03.961Z,99.90
2017-11-21T13:43:32.627Z,99.90
2017-11-21T13:46:01.203Z,99.90
2017-11-21T13:48:29.793Z,99.90
2017-11-21T13:50:59.127Z,99.90
2017-11-21T13:53:29.203Z,99.90
2017-11-21T13:55:57.974Z,99.90
2017-11-21T13:58:27.443Z,99.90
2017-11-21T14:00:56.357Z,99.90
2017-11-21T14:03:24.950Z,99.90
2017-11-21T14:05:53.546Z,99.90
2017-11-21T14:08:22.779Z,99.90
2017-11-21T14:10:52.029Z,99.90
2017-11-21T14:13:20.851Z,99.90
2017-11-21T14:15:49.953Z,99.90
2017-11-21T14:18:18.832Z,99.90
2017-11-21T14:20:48.605Z,99.90
2017-11-21T14:23:18.294Z,99.90
2017-11-21T14:25:47.834Z,99.90
2017-11-21T14:28:17.401Z,99.90
2017-11-21T14:30:46.610Z,99.90
2017-11-21T14:33:17.266Z,99.90
2017-11-21T14:35:50.093Z,99.90
2017-11-21T14:38:18.673Z,99.90
2017-11-21T14:40:47.790Z,99.90
2017-11-21T14:43:19.166Z,99.90
2017-11-21T14:45:48.712Z,99.90
2017-11-21T14:48:17.506Z,99.90
2017-11-21T14:50:46.806Z,99.90
2017-11-21T14:53:15.918Z,99.90
2017-11-21T14:55:44.685Z,99.90
2017-11-21T14:58:13.480Z,99.90
2017-11-21T15:00:42.245Z,99.90
2017-11-21T15:03:11.159Z,99.90
2017-11-21T15:05:40.739Z,99.90
2017-11-21T15:08:09.658Z,99.90
2017-11-21T15:10:39.212Z,99.90
2017-11-21T15:13:08.416Z,99.90
2017-11-21T15:15:37.523Z,99.90
2017-11-21T15:18:06.630Z,99.90
2017-11-21T15:20:40.669Z,99.90
2017-11-21T15:23:11.131Z,99.90
2017-11-21T15:25:40.077Z,99.90
2017-11-21T15:28:08.850Z,99.90
2017-11-21T15:30:39.782Z,99.90
2017-11-21T15:33:09.226Z,99.90
2017-11-21T15:35:38.373Z,99.90
2017-11-21T15:38:10.587Z,99.50
2017-11-21T15:40:40.051Z,99.50
2017-11-21T15:43:09.205Z,99.50
2017-11-21T15:45:38.663Z,99.20
2017-11-21T15:48:10.712Z,99.30
2017-11-21T15:50:40.373Z,99.30
2017-11-21T15:53:09.610Z,99.40
2017-11-21T15:55:39.064Z,99.40
2017-11-21T15:58:08.930Z,99.50
2017-11-21T16:00:38.056Z,99.60
2017-11-21T16:03:08.085Z,99.40
2017-11-21T16:05:37.523Z,99.40
2017-11-21T16:08:06.965Z,99.40
2017-11-21T16:10:36.768Z,99.40
2017-11-21T16:13:06.984Z,99.40
2017-11-21T16:15:36.096Z,99.40
2017-11-21T16:18:05.276Z,99.50
2017-11-21T16:20:34.775Z,99.50
2017-11-21T16:23:07.196Z,99.10
2017-11-21T16:25:36.744Z,99.20
2017-11-21T16:28:06.579Z,99.20
2017-11-21T16:30:56.882Z,99.30
2017-11-21T16:36:20.042Z,98.90
2017-11-21T16:38:49.461Z,98.80
2017-11-21T16:41:19.222Z,98.90
2017-11-21T16:43:51.616Z,98.90
2017-11-21T16:46:22.910Z,99.00
2017-11-21T16:48:52.359Z,99.00
2017-11-21T16:51:24.072Z,98.80
2017-11-21T16:53:53.517Z,98.80
2017-11-21T16:56:46.781Z,98.80
2017-11-21T16:59:20.034Z,98.80
2017-11-21T17:01:49.808Z,98.70
2017-11-21T17:04:24.536Z,98.60
2017-11-21T17:06:53.910Z,98.60
2017-11-21T17:09:25.177Z,98.60
2017-11-21T17:12:07.773Z,98.60
2017-11-21T17:14:41.421Z,98.50
2017-11-21T17:17:20.849Z,98.60
2017-11-21T17:19:51.513Z,98.60
2017-11-21T17:22:21.794Z,98.60
2017-11-21T17:24:51.227Z,98.60
2017-11-21T17:27:21.447Z,98.40
2017-11-21T17:29:51.085Z,98.40
2017-11-21T17:32:21.404Z,98.60
2017-11-21T17:34:51.256Z,98.50
2017-11-21T17:37:21.078Z,98.60
2017-11-21T17:39:50.213Z,98.40
2017-11-21T17:42:19.683Z,98.50
2017-11-21T17:44:50.098Z,98.40
2017-11-21T17:47:19.658Z,98.30
2017-11-21T17:49:49.897Z,98.60
2017-11-21T17:52:18.692Z,98.60
2017-11-21T17:54:48.413Z,98.30
2017-11-21T18:00:12.725Z,98.20
2017-11-21T18:02:44.020Z,98.10
2017-11-21T18:05:13.455Z,98.30
2017-11-21T18:07:43.389Z,97.90
2017-11-21T18:10:12.195Z,98.00
2017-11-21T18:12:41.690Z,97.90
2017-11-21T18:15:11.040Z,97.80
2017-11-21T18:17:40.509Z,97.90
2017-11-21T18:20:10.259Z,97.70
2017-11-21T18:22:42.075Z,97.60
2017-11-21T18:25:14.683Z,97.80
2017-11-21T18:27:43.840Z,97.70
2017-11-21T18:30:13.287Z,97.70
2017-11-21T18:32:54.054Z,97.70
2017-11-21T18:35:23.486Z,97.70
2017-11-21T18:37:52.935Z,97.70
2017-11-21T18:40:50.242Z,97.60
2017-11-21T18:43:19.729Z,97.50
2017-11-21T18:45:49.188Z,97.40
2017-11-21T18:48:18.925Z,97.30
2017-11-21T18:50:48.394Z,97.20
2017-11-21T18:53:20.298Z,97.10
2017-11-21T18:55:49.822Z,97.00
2017-11-21T18:58:19.935Z,97.10
2017-11-21T19:00:49.263Z,97.00
2017-11-21T19:03:18.797Z,97.10
2017-11-21T19:05:49.105Z,97.90
2017-11-21T19:08:26.756Z,97.50
2017-11-21T19:11:11.061Z,97.50
2017-11-21T19:13:40.498Z,96.90
2017-11-21T19:16:09.949Z,97.60
2017-11-21T19:18:39.395Z,97.50
2017-11-21T19:21:08.822Z,97.40
2017-11-21T19:23:38.706Z,96.80
2017-11-21T19:26:08.293Z,97.30
2017-11-21T19:28:37.732Z,97.40
2017-11-21T19:31:07.258Z,96.80
2017-11-21T19:33:36.691Z,96.50
2017-11-21T19:36:05.807Z,97.20
2017-11-21T19:38:35.625Z,97.10
2017-11-21T19:41:05.069Z,96.50
2017-11-21T19:43:34.529Z,96.50
2017-11-21T19:46:04.970Z,97.00
2017-11-21T19:48:49.487Z,97.00
2017-11-21T19:51:20.256Z,96.90
2017-11-21T19:53:49.766Z,96.80
2017-11-21T19:56:48.885Z,96.80
2017-11-21T19:59:19.179Z,96.70
2017-11-21T20:01:48.644Z,96.70
2017-11-21T20:04:19.695Z,96.70
2017-11-21T20:06:49.202Z,96.70
2017-11-21T20:09:18.836Z,96.30
2017-11-21T20:11:51.540Z,96.60
2017-11-21T20:14:21.069Z,96.50
2017-11-21T20:16:50.653Z,95.90
2017-11-21T20:19:20.457Z,96.10
2017-11-21T20:21:49.961Z,95.90
2017-11-21T20:27:18.497Z,95.90
2017-11-21T20:29:49.769Z,96.20
2017-11-21T20:32:19.549Z,96.30
2017-11-21T20:34:49.106Z,96.40
2017-11-21T20:37:18.984Z,96.10
2017-11-21T20:39:49.231Z,96.10
2017-11-21T20:42:19.645Z,96.00
2017-11-21T20:48:18.488Z,96.00
2017-11-21T20:50:51.172Z,96.20
2017-11-21T20:53:20.744Z,96.10
2017-11-21T20:55:49.985Z,96.00
2017-11-21T20:58:25.831Z,95.90
2017-11-21T21:00:59.234Z,95.50
2017-11-21T21:03:28.833Z,95.20
2017-11-21T21:05:58.417Z,95.00
2017-11-21T21:08:28.327Z,95.10
2017-11-21T21:10:58.132Z,95.20
2017-11-21T21:13:27.713Z,95.00
2017-11-21T21:15:57.173Z,95.00
2017-11-21T21:21:45.022Z,95.00
2017-11-21T21:24:14.509Z,94.80
2017-11-21T21:26:50.561Z,95.00
2017-11-21T21:32:43.575Z,94.90
2017-11-21T21:35:18.213Z,94.70
2017-11-21T21:40:47.155Z,94.70
2017-11-21T21:43:19.420Z,94.80
2017-11-21T21:45:48.860Z,94.60
2017-11-21T21:48:18.307Z,94.80
2017-11-21T21:50:51.164Z,94.60
2017-11-21T21:53:20.623Z,94.90
2017-11-21T21:55:49.425Z,94.60
2017-11-21T21:58:19.229Z,94.70
2017-11-21T22:00:50.354Z,94.80
2017-11-21T22:03:19.559Z,94.70
2017-11-21T22:05:49.157Z,94.80
2017-11-21T22:08:18.989Z,94.90
2017-11-21T22:13:42.325Z,94.80
2017-11-21T22:16:11.786Z,94.70
2017-11-21T22:18:41.061Z,94.70
2017-11-21T22:21:11.692Z,94.80
2017-11-21T22:23:41.145Z,94.70
2017-11-21T22:26:11.103Z,94.70
2017-11-21T22:28:40.581Z,94.80
2017-11-21T22:31:10.117Z,94.70
2017-11-21T22:33:39.719Z,94.80
2017-11-21T22:36:09.221Z,94.70
2017-11-21T22:38:38.957Z,94.70
2017-11-21T22:41:09.113Z,94.80
2017-11-21T22:43:38.641Z,95.30
2017-11-21T22:46:08.072Z,94.60
2017-11-21T22:48:37.936Z,94.80
2017-11-21T22:51:07.580Z,94.70
2017-11-21T22:53:37.061Z,94.70
2017-11-21T22:56:08.022Z,94.70
2017-11-21T22:58:42.530Z,94.60
2017-11-21T23:01:14.469Z,94.70
2017-11-21T23:03:43.933Z,94.60
2017-11-21T23:06:13.387Z,94.70
2017-11-21T23:08:43.011Z,94.50
2017-11-21T23:11:13.151Z,94.50
2017-11-21T23:13:42.589Z,94.50
2017-11-21T23:16:13.356Z,94.70
2017-11-21T23:18:42.785Z,94.70
2017-11-21T23:21:13.253Z,94.60
2017-11-21T23:23:42.834Z,94.50
2017-11-21T23:26:11.945Z,94.60
2017-11-21T23:28:41.656Z,94.60
2017-11-21T23:31:10.781Z,94.70
2017-11-21T23:33:40.225Z,94.70
2017-11-21T23:36:10.273Z,94.80
2017-11-21T23:38:39.792Z,94.80
2017-11-21T23:41:09.419Z,94.70
2017-11-21T23:43:41.421Z,94.70
2017-11-21T23:46:11.417Z,95.20
2017-11-21T23:48:40.858Z,94.80
2017-11-21T23:51:10.307Z,95.30
2017-11-21T23:53:49.455Z,95.50
2017-11-21T23:56:22.760Z,95.60
2017-11-21T23:58:56.822Z,95.60
